sensor_id;sensor_type;location;lat;lon;timestamp;temperature;humidity
2999;DHT22;1509;51.964;7.628;2022-12-15T00:01:47;-5.20;99.90
2999;DHT22;1509;51.964;7.628;2022-12-15T00:04:31;-5.10;99.90
2999;DHT22;1509;51.964;7.628;2022-12-15T00:07:15;-5.10;99.90
2999;DHT22;1509;51.964;7.628;2022-12-15T00:09:59;-5.10;99.90
2999;DHT22;1509;51.964;7.628;2022-12-15T00:12:43;-5.10;99.90
2999;DHT22;1509;51.964;7.628;2022-12-15T00:15:27;-5.10;99.90
2999;DHT22;1509;51.964;7.628;2022-12-15T00:18:11;-5.10;99.90
2999;DHT22;1509;51.964;7.628;2022-12-15T00:20:59;-5.10;99.90
2999;DHT22;1509;51.964;7.628;2022-12-15T00:23:43;-5.00;99.90
2999;DHT22;1509;51.964;7.628;2022-12-15T00:26:27;-5.00;99.90
2999;DHT22;1509;51.964;7.628;2022-12-15T00:29:11;-5.00;99.90
2999;DHT22;1509;51.964;7.628;2022-12-15T00:31:58;-4.90;99.90
2999;DHT22;1509;51.964;7.628;2022-12-15T00:34:43;-5.00;99.90
2999;DHT22;1509;51.964;7.628;2022-12-15T00:37:27;-5.00;99.90
2999;DHT22;1509;51.964;7.628;2022-12-15T00:40:11;-4.90;99.90
2999;DHT22;1509;51.964;7.628;2022-12-15T00:42:37;-4.90;99.90
2999;DHT22;1509;51.964;7.628;2022-12-15T00:45:03;-4.90;99.90
2999;DHT22;1509;51.964;7.628;2022-12-15T00:47:31;-4.90;99.90
2999;DHT22;1509;51.964;7.628;2022-12-15T00:49:57;-5.00;99.90
2999;DHT22;1509;51.964;7.628;2022-12-15T00:52:58;-4.90;99.90
2999;DHT22;1509;51.964;7.628;2022-12-15T00:55:42;-5.00;99.90
2999;DHT22;1509;51.964;7.628;2022-12-15T00:58:26;-4.90;99.90
2999;DHT22;1509;51.964;7.628;2022-12-15T01:01:10;-4.90;99.90
2999;DHT22;1509;51.964;7.628;2022-12-15T01:03:54;-4.90;99.90
2999;DHT22;1509;51.964;7.628;2022-12-15T01:06:39;-4.90;99.90
2999;DHT22;1509;51.964;7.628;2022-12-15T01:09:25;-5.00;99.90
2999;DHT22;1509;51.964;7.628;2022-12-15T01:12:09;-5.00;99.90
2999;DHT22;1509;51.964;7.628;2022-12-15T01:14:54;-5.00;99.90
2999;DHT22;1509;51.964;7.628;2022-12-15T01:17:38;-4.90;99.90
2999;DHT22;1509;51.964;7.628;2022-12-15T01:20:21;-4.90;99.90
2999;DHT22;1509;51.964;7.628;2022-12-15T01:22:51;-4.90;99.90
2999;DHT22;1509;51.964;7.628;2022-12-15T01:25:22;-4.90;99.90
2999;DHT22;1509;51.964;7.628;2022-12-15T01:27:48;-4.90;99.90
2999;DHT22;1509;51.964;7.628;2022-12-15T01:30:17;-4.90;99.90
2999;DHT22;1509;51.964;7.628;2022-12-15T01:32:42;-5.00;99.90
2999;DHT22;1509;51.964;7.628;2022-12-15T01:35:09;-5.00;99.90
2999;DHT22;1509;51.964;7.628;2022-12-15T01:37:36;-5.10;99.90
2999;DHT22;1509;51.964;7.628;2022-12-15T01:40:03;-5.10;99.90
2999;DHT22;1509;51.964;7.628;2022-12-15T01:42:48;-5.10;99.90
2999;DHT22;1509;51.964;7.628;2022-12-15T01:47:52;-5.00;99.90
2999;DHT22;1509;51.964;7.628;2022-12-15T01:50:19;-5.00;99.90
2999;DHT22;1509;51.964;7.628;2022-12-15T01:52:47;-5.00;99.90
2999;DHT22;1509;51.964;7.628;2022-12-15T01:55:14;-5.00;99.90
2999;DHT22;1509;51.964;7.628;2022-12-15T01:57:40;-5.00;99.90
2999;DHT22;1509;51.964;7.628;2022-12-15T02:00:07;-5.10;99.90
2999;DHT22;1509;51.964;7.628;2022-12-15T02:02:34;-5.20;99.90
2999;DHT22;1509;51.964;7.628;2022-12-15T02:05:02;-5.20;99.90
2999;DHT22;1509;51.964;7.628;2022-12-15T02:07:28;-5.30;99.90
2999;DHT22;1509;51.964;7.628;2022-12-15T02:09:56;-5.30;99.90
2999;DHT22;1509;51.964;7.628;2022-12-15T02:15:39;-5.30;99.90
2999;DHT22;1509;51.964;7.628;2022-12-15T02:18:27;-5.30;99.90
2999;DHT22;1509;51.964;7.628;2022-12-15T02:21:18;-5.30;99.90
2999;DHT22;1509;51.964;7.628;2022-12-15T02:32:06;-5.20;99.90
2999;DHT22;1509;51.964;7.628;2022-12-15T02:35:04;-5.20;99.90
2999;DHT22;1509;51.964;7.628;2022-12-15T02:37:32;-5.20;99.90
2999;DHT22;1509;51.964;7.628;2022-12-15T02:39:59;-5.20;99.90
2999;DHT22;1509;51.964;7.628;2022-12-15T02:42:26;-5.20;99.90
2999;DHT22;1509;51.964;7.628;2022-12-15T02:44:59;-5.20;99.90
2999;DHT22;1509;51.964;7.628;2022-12-15T02:47:56;-5.20;99.90
2999;DHT22;1509;51.964;7.628;2022-12-15T02:53:11;-5.20;99.90
2999;DHT22;1509;51.964;7.628;2022-12-15T02:55:59;-5.20;99.90
2999;DHT22;1509;51.964;7.628;2022-12-15T02:58:46;-5.10;99.90
2999;DHT22;1509;51.964;7.628;2022-12-15T03:03:58;-5.10;99.90
2999;DHT22;1509;51.964;7.628;2022-12-15T03:06:27;-5.10;99.90
2999;DHT22;1509;51.964;7.628;2022-12-15T03:08:52;-5.20;99.90
2999;DHT22;1509;51.964;7.628;2022-12-15T03:11:18;-5.20;99.90
2999;DHT22;1509;51.964;7.628;2022-12-15T03:13:44;-5.20;99.90
2999;DHT22;1509;51.964;7.628;2022-12-15T03:16:10;-5.30;99.90
2999;DHT22;1509;51.964;7.628;2022-12-15T03:18:35;-5.30;99.90
2999;DHT22;1509;51.964;7.628;2022-12-15T03:21:01;-5.30;99.90
2999;DHT22;1509;51.964;7.628;2022-12-15T03:23:26;-5.30;99.90
2999;DHT22;1509;51.964;7.628;2022-12-15T03:25:52;-5.30;99.90
2999;DHT22;1509;51.964;7.628;2022-12-15T03:28:22;-5.30;99.90
2999;DHT22;1509;51.964;7.628;2022-12-15T03:30:48;-5.30;99.90
2999;DHT22;1509;51.964;7.628;2022-12-15T03:33:14;-5.30;99.90
2999;DHT22;1509;51.964;7.628;2022-12-15T03:35:39;-5.30;99.90
2999;DHT22;1509;51.964;7.628;2022-12-15T03:38:05;-5.30;99.90
2999;DHT22;1509;51.964;7.628;2022-12-15T03:40:30;-5.30;99.90
2999;DHT22;1509;51.964;7.628;2022-12-15T03:42:56;-5.30;99.90
2999;DHT22;1509;51.964;7.628;2022-12-15T03:45:24;-5.30;99.90
2999;DHT22;1509;51.964;7.628;2022-12-15T03:47:51;-5.30;99.90
2999;DHT22;1509;51.964;7.628;2022-12-15T03:50:23;-5.30;99.90
2999;DHT22;1509;51.964;7.628;2022-12-15T03:52:57;-5.30;99.90
2999;DHT22;1509;51.964;7.628;2022-12-15T03:55:24;-5.30;99.90
2999;DHT22;1509;51.964;7.628;2022-12-15T03:57:50;-5.30;99.90
2999;DHT22;1509;51.964;7.628;2022-12-15T04:00:18;-5.30;99.90
2999;DHT22;1509;51.964;7.628;2022-12-15T04:02:44;-5.30;99.90
2999;DHT22;1509;51.964;7.628;2022-12-15T04:05:29;-5.30;99.90
2999;DHT22;1509;51.964;7.628;2022-12-15T04:07:56;-5.30;99.90
2999;DHT22;1509;51.964;7.628;2022-12-15T04:10:23;-5.30;99.90
2999;DHT22;1509;51.964;7.628;2022-12-15T04:13:05;-5.30;99.90
2999;DHT22;1509;51.964;7.628;2022-12-15T04:15:33;-5.30;99.90
2999;DHT22;1509;51.964;7.628;2022-12-15T04:18:00;-5.30;99.90
2999;DHT22;1509;51.964;7.628;2022-12-15T04:20:27;-5.30;99.90
2999;DHT22;1509;51.964;7.628;2022-12-15T04:22:53;-5.30;99.90
2999;DHT22;1509;51.964;7.628;2022-12-15T04:25:20;-5.30;99.90
2999;DHT22;1509;51.964;7.628;2022-12-15T04:28:06;-5.30;99.90
2999;DHT22;1509;51.964;7.628;2022-12-15T04:30:58;-5.30;99.90
2999;DHT22;1509;51.964;7.628;2022-12-15T04:33:46;-5.30;99.90
2999;DHT22;1509;51.964;7.628;2022-12-15T04:36:33;-5.30;99.90
2999;DHT22;1509;51.964;7.628;2022-12-15T04:39:18;-5.30;99.90
2999;DHT22;1509;51.964;7.628;2022-12-15T04:42:02;-5.30;99.90
2999;DHT22;1509;51.964;7.628;2022-12-15T04:44:48;-5.30;99.90
2999;DHT22;1509;51.964;7.628;2022-12-15T04:47:33;-5.20;99.90
2999;DHT22;1509;51.964;7.628;2022-12-15T04:50:17;-5.20;99.90
2999;DHT22;1509;51.964;7.628;2022-12-15T04:53:13;-5.20;99.90
2999;DHT22;1509;51.964;7.628;2022-12-15T04:55:57;-5.30;99.90
2999;DHT22;1509;51.964;7.628;2022-12-15T04:58:42;-5.30;99.90
2999;DHT22;1509;51.964;7.628;2022-12-15T05:01:26;-5.30;99.90
2999;DHT22;1509;51.964;7.628;2022-12-15T05:04:11;-5.30;99.90
2999;DHT22;1509;51.964;7.628;2022-12-15T05:06:55;-5.30;99.90
2999;DHT22;1509;51.964;7.628;2022-12-15T05:09:39;-5.20;99.90
2999;DHT22;1509;51.964;7.628;2022-12-15T05:12:23;-5.20;99.90
2999;DHT22;1509;51.964;7.628;2022-12-15T05:15:07;-5.20;99.90
2999;DHT22;1509;51.964;7.628;2022-12-15T05:17:52;-5.20;99.90
2999;DHT22;1509;51.964;7.628;2022-12-15T05:20:37;-5.20;99.90
2999;DHT22;1509;51.964;7.628;2022-12-15T05:23:21;-5.20;99.90
2999;DHT22;1509;51.964;7.628;2022-12-15T05:26:05;-5.20;99.90
2999;DHT22;1509;51.964;7.628;2022-12-15T05:28:49;-5.30;99.90
2999;DHT22;1509;51.964;7.628;2022-12-15T05:31:33;-5.30;99.90
2999;DHT22;1509;51.964;7.628;2022-12-15T05:34:14;-5.30;99.90
2999;DHT22;1509;51.964;7.628;2022-12-15T05:36:40;-5.30;99.90
2999;DHT22;1509;51.964;7.628;2022-12-15T05:39:06;-5.30;99.90
2999;DHT22;1509;51.964;7.628;2022-12-15T05:41:32;-5.30;99.90
2999;DHT22;1509;51.964;7.628;2022-12-15T05:43:57;-5.20;99.90
2999;DHT22;1509;51.964;7.628;2022-12-15T05:46:23;-5.20;99.90
2999;DHT22;1509;51.964;7.628;2022-12-15T05:48:48;-5.20;99.90
2999;DHT22;1509;51.964;7.628;2022-12-15T05:51:14;-5.20;99.90
2999;DHT22;1509;51.964;7.628;2022-12-15T05:53:40;-5.30;99.90
2999;DHT22;1509;51.964;7.628;2022-12-15T05:56:09;-5.30;99.90
2999;DHT22;1509;51.964;7.628;2022-12-15T05:58:38;-5.30;99.90
2999;DHT22;1509;51.964;7.628;2022-12-15T06:01:13;-5.30;99.90
2999;DHT22;1509;51.964;7.628;2022-12-15T06:03:40;-5.30;99.90
2999;DHT22;1509;51.964;7.628;2022-12-15T06:06:06;-5.20;99.90
2999;DHT22;1509;51.964;7.628;2022-12-15T06:08:34;-5.20;99.90
2999;DHT22;1509;51.964;7.628;2022-12-15T06:11:00;-5.20;99.90
2999;DHT22;1509;51.964;7.628;2022-12-15T06:13:28;-5.20;99.90
2999;DHT22;1509;51.964;7.628;2022-12-15T06:16:08;-5.20;99.90
2999;DHT22;1509;51.964;7.628;2022-12-15T06:18:37;-5.20;99.90
2999;DHT22;1509;51.964;7.628;2022-12-15T06:21:08;-5.10;99.90
2999;DHT22;1509;51.964;7.628;2022-12-15T06:23:35;-5.10;99.90
2999;DHT22;1509;51.964;7.628;2022-12-15T06:28:33;-5.20;99.90
2999;DHT22;1509;51.964;7.628;2022-12-15T06:31:01;-5.10;99.90
2999;DHT22;1509;51.964;7.628;2022-12-15T06:33:28;-5.10;99.90
2999;DHT22;1509;51.964;7.628;2022-12-15T06:35:55;-5.10;99.90
2999;DHT22;1509;51.964;7.628;2022-12-15T06:38:20;-5.00;99.90
2999;DHT22;1509;51.964;7.628;2022-12-15T06:40:57;-5.00;99.90
2999;DHT22;1509;51.964;7.628;2022-12-15T06:43:22;-4.90;99.90
2999;DHT22;1509;51.964;7.628;2022-12-15T06:45:48;-5.00;99.90
2999;DHT22;1509;51.964;7.628;2022-12-15T06:48:14;-4.90;99.90
2999;DHT22;1509;51.964;7.628;2022-12-15T06:50:40;-4.90;99.90
2999;DHT22;1509;51.964;7.628;2022-12-15T06:53:06;-4.90;99.90
2999;DHT22;1509;51.964;7.628;2022-12-15T06:55:32;-4.90;99.90
2999;DHT22;1509;51.964;7.628;2022-12-15T06:57:58;-4.90;99.90
2999;DHT22;1509;51.964;7.628;2022-12-15T07:00:24;-4.90;99.90
2999;DHT22;1509;51.964;7.628;2022-12-15T07:02:49;-4.90;99.90
2999;DHT22;1509;51.964;7.628;2022-12-15T07:05:15;-4.90;99.90
2999;DHT22;1509;51.964;7.628;2022-12-15T07:07:40;-5.00;99.90
2999;DHT22;1509;51.964;7.628;2022-12-15T07:10:06;-5.00;99.90
2999;DHT22;1509;51.964;7.628;2022-12-15T07:12:32;-5.00;99.90
2999;DHT22;1509;51.964;7.628;2022-12-15T07:14:58;-5.00;99.90
2999;DHT22;1509;51.964;7.628;2022-12-15T07:17:23;-5.00;99.90
2999;DHT22;1509;51.964;7.628;2022-12-15T07:19:49;-4.90;99.90
2999;DHT22;1509;51.964;7.628;2022-12-15T07:22:15;-5.00;99.90
2999;DHT22;1509;51.964;7.628;2022-12-15T07:24:40;-5.00;99.90
2999;DHT22;1509;51.964;7.628;2022-12-15T07:27:06;-5.10;99.90
2999;DHT22;1509;51.964;7.628;2022-12-15T07:29:31;-5.10;99.90
2999;DHT22;1509;51.964;7.628;2022-12-15T07:31:57;-5.10;99.90
2999;DHT22;1509;51.964;7.628;2022-12-15T07:34:25;-5.10;99.90
2999;DHT22;1509;51.964;7.628;2022-12-15T07:36:50;-5.10;99.90
2999;DHT22;1509;51.964;7.628;2022-12-15T07:39:16;-5.00;99.90
2999;DHT22;1509;51.964;7.628;2022-12-15T07:41:41;-5.00;99.90
2999;DHT22;1509;51.964;7.628;2022-12-15T07:44:07;-5.00;99.90
2999;DHT22;1509;51.964;7.628;2022-12-15T07:46:33;-5.00;99.90
2999;DHT22;1509;51.964;7.628;2022-12-15T07:48:58;-5.00;99.90
2999;DHT22;1509;51.964;7.628;2022-12-15T07:51:24;-5.10;99.90
2999;DHT22;1509;51.964;7.628;2022-12-15T07:53:50;-5.00;99.90
2999;DHT22;1509;51.964;7.628;2022-12-15T07:56:16;-5.00;99.90
2999;DHT22;1509;51.964;7.628;2022-12-15T07:58:42;-4.90;99.90
2999;DHT22;1509;51.964;7.628;2022-12-15T08:01:10;-4.90;99.90
2999;DHT22;1509;51.964;7.628;2022-12-15T08:03:36;-4.90;99.90
2999;DHT22;1509;51.964;7.628;2022-12-15T08:06:07;-4.90;99.90
2999;DHT22;1509;51.964;7.628;2022-12-15T08:08:34;-4.90;99.90
2999;DHT22;1509;51.964;7.628;2022-12-15T08:11:06;-4.80;99.90
2999;DHT22;1509;51.964;7.628;2022-12-15T08:13:33;-4.80;99.90
2999;DHT22;1509;51.964;7.628;2022-12-15T08:15:59;-4.80;99.90
2999;DHT22;1509;51.964;7.628;2022-12-15T08:18:25;-4.70;99.90
2999;DHT22;1509;51.964;7.628;2022-12-15T08:20:51;-4.70;99.90
2999;DHT22;1509;51.964;7.628;2022-12-15T08:23:16;-4.70;99.90
2999;DHT22;1509;51.964;7.628;2022-12-15T08:25:42;-4.70;99.90
2999;DHT22;1509;51.964;7.628;2022-12-15T08:28:07;-4.60;99.90
2999;DHT22;1509;51.964;7.628;2022-12-15T08:30:33;-4.60;99.90
2999;DHT22;1509;51.964;7.628;2022-12-15T08:33:02;-4.60;99.90
2999;DHT22;1509;51.964;7.628;2022-12-15T08:35:28;-4.60;99.90
2999;DHT22;1509;51.964;7.628;2022-12-15T08:37:54;-4.50;99.90
2999;DHT22;1509;51.964;7.628;2022-12-15T08:40:20;-4.50;99.90
2999;DHT22;1509;51.964;7.628;2022-12-15T08:42:45;-4.40;99.90
2999;DHT22;1509;51.964;7.628;2022-12-15T08:45:11;-4.40;99.90
2999;DHT22;1509;51.964;7.628;2022-12-15T08:47:37;-4.30;99.90
2999;DHT22;1509;51.964;7.628;2022-12-15T08:50:07;-4.30;99.90
2999;DHT22;1509;51.964;7.628;2022-12-15T08:52:33;-4.20;99.90
2999;DHT22;1509;51.964;7.628;2022-12-15T08:54:59;-4.20;99.90
2999;DHT22;1509;51.964;7.628;2022-12-15T08:57:24;-4.10;99.90
2999;DHT22;1509;51.964;7.628;2022-12-15T08:59:55;-4.10;99.90
2999;DHT22;1509;51.964;7.628;2022-12-15T09:02:20;-4.00;99.90
2999;DHT22;1509;51.964;7.628;2022-12-15T09:04:46;-3.90;99.90
2999;DHT22;1509;51.964;7.628;2022-12-15T09:07:12;-3.90;99.90
2999;DHT22;1509;51.964;7.628;2022-12-15T09:09:38;-3.90;99.90
2999;DHT22;1509;51.964;7.628;2022-12-15T09:12:04;-3.90;99.90
2999;DHT22;1509;51.964;7.628;2022-12-15T09:14:29;-3.90;99.90
2999;DHT22;1509;51.964;7.628;2022-12-15T09:16:55;-3.80;99.90
2999;DHT22;1509;51.964;7.628;2022-12-15T09:19:21;-3.80;99.90
2999;DHT22;1509;51.964;7.628;2022-12-15T09:21:46;-3.80;99.90
2999;DHT22;1509;51.964;7.628;2022-12-15T09:24:13;-3.70;99.90
2999;DHT22;1509;51.964;7.628;2022-12-15T09:26:38;-3.60;99.90
2999;DHT22;1509;51.964;7.628;2022-12-15T09:29:05;-3.60;99.90
2999;DHT22;1509;51.964;7.628;2022-12-15T09:31:32;-3.50;99.90
2999;DHT22;1509;51.964;7.628;2022-12-15T09:34:00;-3.50;99.90
2999;DHT22;1509;51.964;7.628;2022-12-15T09:36:27;-3.40;99.90
2999;DHT22;1509;51.964;7.628;2022-12-15T09:38:54;-3.40;99.90
2999;DHT22;1509;51.964;7.628;2022-12-15T09:41:23;-3.30;99.90
2999;DHT22;1509;51.964;7.628;2022-12-15T09:44:09;-3.20;99.90
2999;DHT22;1509;51.964;7.628;2022-12-15T09:49:58;-3.10;99.90
2999;DHT22;1509;51.964;7.628;2022-12-15T09:52:42;-3.00;99.90
2999;DHT22;1509;51.964;7.628;2022-12-15T09:55:29;-3.00;99.90
2999;DHT22;1509;51.964;7.628;2022-12-15T10:00:39;-3.00;99.90
2999;DHT22;1509;51.964;7.628;2022-12-15T10:03:36;-2.90;99.90
2999;DHT22;1509;51.964;7.628;2022-12-15T10:06:14;-2.90;99.90
2999;DHT22;1509;51.964;7.628;2022-12-15T10:08:45;-2.80;99.90
2999;DHT22;1509;51.964;7.628;2022-12-15T10:11:19;-2.80;99.90
2999;DHT22;1509;51.964;7.628;2022-12-15T10:14:15;-2.80;99.90
2999;DHT22;1509;51.964;7.628;2022-12-15T10:19:18;-2.60;99.90
2999;DHT22;1509;51.964;7.628;2022-12-15T10:21:45;-2.50;99.90
2999;DHT22;1509;51.964;7.628;2022-12-15T10:24:17;-2.40;99.90
2999;DHT22;1509;51.964;7.628;2022-12-15T10:26:51;-2.40;99.90
2999;DHT22;1509;51.964;7.628;2022-12-15T10:31:57;-2.30;99.90
2999;DHT22;1509;51.964;7.628;2022-12-15T10:34:33;-2.20;99.90
2999;DHT22;1509;51.964;7.628;2022-12-15T10:36:59;-2.20;99.90
2999;DHT22;1509;51.964;7.628;2022-12-15T10:39:41;-2.20;99.90
2999;DHT22;1509;51.964;7.628;2022-12-15T10:42:15;-2.00;99.90
2999;DHT22;1509;51.964;7.628;2022-12-15T10:44:43;-1.90;99.90
2999;DHT22;1509;51.964;7.628;2022-12-15T10:47:25;-1.90;99.90
2999;DHT22;1509;51.964;7.628;2022-12-15T10:49:51;-1.90;99.90
2999;DHT22;1509;51.964;7.628;2022-12-15T10:52:25;-1.90;99.90
2999;DHT22;1509;51.964;7.628;2022-12-15T10:54:53;-1.90;99.90
2999;DHT22;1509;51.964;7.628;2022-12-15T10:57:20;-1.90;99.90
2999;DHT22;1509;51.964;7.628;2022-12-15T10:59:46;-1.70;99.90
2999;DHT22;1509;51.964;7.628;2022-12-15T11:02:29;-1.70;99.90
2999;DHT22;1509;51.964;7.628;2022-12-15T11:04:59;-1.70;99.90
2999;DHT22;1509;51.964;7.628;2022-12-15T11:07:34;-1.60;99.90
2999;DHT22;1509;51.964;7.628;2022-12-15T11:10:07;-1.60;99.90
2999;DHT22;1509;51.964;7.628;2022-12-15T11:12:33;-1.50;99.90
2999;DHT22;1509;51.964;7.628;2022-12-15T11:18:09;-1.40;99.90
2999;DHT22;1509;51.964;7.628;2022-12-15T11:20:51;-1.30;99.90
2999;DHT22;1509;51.964;7.628;2022-12-15T11:23:46;-1.30;99.90
2999;DHT22;1509;51.964;7.628;2022-12-15T11:26:24;-1.20;99.90
2999;DHT22;1509;51.964;7.628;2022-12-15T11:28:57;-1.10;99.90
2999;DHT22;1509;51.964;7.628;2022-12-15T11:31:36;-1.10;99.90
2999;DHT22;1509;51.964;7.628;2022-12-15T11:34:08;-1.00;99.90
2999;DHT22;1509;51.964;7.628;2022-12-15T11:47:33;-0.80;99.90
2999;DHT22;1509;51.964;7.628;2022-12-15T11:55:29;-0.70;99.90
2999;DHT22;1509;51.964;7.628;2022-12-15T11:58:31;-0.60;99.90
2999;DHT22;1509;51.964;7.628;2022-12-15T12:04:22;1.40;99.90
2999;DHT22;1509;51.964;7.628;2022-12-15T12:07:13;2.40;99.90
2999;DHT22;1509;51.964;7.628;2022-12-15T12:12:41;4.50;99.90
2999;DHT22;1509;51.964;7.628;2022-12-15T12:17:42;5.00;99.90
2999;DHT22;1509;51.964;7.628;2022-12-15T12:20:23;5.30;99.90
2999;DHT22;1509;51.964;7.628;2022-12-15T12:22:59;5.30;99.90
2999;DHT22;1509;51.964;7.628;2022-12-15T12:25:33;5.50;99.90
2999;DHT22;1509;51.964;7.628;2022-12-15T12:28:16;6.00;99.90
2999;DHT22;1509;51.964;7.628;2022-12-15T12:30:45;6.00;99.90
2999;DHT22;1509;51.964;7.628;2022-12-15T12:33:44;5.80;99.90
2999;DHT22;1509;51.964;7.628;2022-12-15T12:36:14;5.60;99.90
2999;DHT22;1509;51.964;7.628;2022-12-15T12:38:52;5.80;99.90
2999;DHT22;1509;51.964;7.628;2022-12-15T12:41:39;5.70;99.90
2999;DHT22;1509;51.964;7.628;2022-12-15T12:44:29;6.50;99.90
2999;DHT22;1509;51.964;7.628;2022-12-15T12:46:58;6.90;99.90
2999;DHT22;1509;51.964;7.628;2022-12-15T12:49:35;6.60;99.90
2999;DHT22;1509;51.964;7.628;2022-12-15T12:52:03;6.10;99.90
2999;DHT22;1509;51.964;7.628;2022-12-15T12:56:59;4.80;99.90
2999;DHT22;1509;51.964;7.628;2022-12-15T13:02:22;3.40;99.90
2999;DHT22;1509;51.964;7.628;2022-12-15T13:04:49;3.20;99.90
2999;DHT22;1509;51.964;7.628;2022-12-15T13:07:36;3.00;99.90
2999;DHT22;1509;51.964;7.628;2022-12-15T13:10:20;2.80;99.90
2999;DHT22;1509;51.964;7.628;2022-12-15T13:12:56;2.60;99.90
2999;DHT22;1509;51.964;7.628;2022-12-15T13:15:39;2.40;99.90
2999;DHT22;1509;51.964;7.628;2022-12-15T13:18:20;2.30;99.90
2999;DHT22;1509;51.964;7.628;2022-12-15T13:28:29;1.30;99.90
2999;DHT22;1509;51.964;7.628;2022-12-15T13:41:42;1.50;99.90
2999;DHT22;1509;51.964;7.628;2022-12-15T13:46:45;1.50;99.90
2999;DHT22;1509;51.964;7.628;2022-12-15T13:49:14;1.60;99.90
2999;DHT22;1509;51.964;7.628;2022-12-15T13:51:42;1.80;99.90
2999;DHT22;1509;51.964;7.628;2022-12-15T13:54:18;2.00;99.90
2999;DHT22;1509;51.964;7.628;2022-12-15T13:57:04;2.10;99.90
2999;DHT22;1509;51.964;7.628;2022-12-15T13:59:40;2.30;99.90
2999;DHT22;1509;51.964;7.628;2022-12-15T14:02:23;2.10;99.90
2999;DHT22;1509;51.964;7.628;2022-12-15T14:07:37;1.60;99.90
2999;DHT22;1509;51.964;7.628;2022-12-15T14:10:06;1.30;99.90
2999;DHT22;1509;51.964;7.628;2022-12-15T14:12:40;1.20;99.90
2999;DHT22;1509;51.964;7.628;2022-12-15T14:15:12;1.10;99.90
2999;DHT22;1509;51.964;7.628;2022-12-15T14:17:38;1.10;99.90
2999;DHT22;1509;51.964;7.628;2022-12-15T14:20:16;1.00;99.90
2999;DHT22;1509;51.964;7.628;2022-12-15T14:22:43;0.90;99.90
2999;DHT22;1509;51.964;7.628;2022-12-15T14:25:27;0.80;99.90
2999;DHT22;1509;51.964;7.628;2022-12-15T14:27:56;0.70;99.90
2999;DHT22;1509;51.964;7.628;2022-12-15T14:30:23;0.70;99.90
2999;DHT22;1509;51.964;7.628;2022-12-15T14:33:02;0.60;99.90
2999;DHT22;1509;51.964;7.628;2022-12-15T14:38:02;0.50;99.90
2999;DHT22;1509;51.964;7.628;2022-12-15T14:40:30;0.40;99.90
2999;DHT22;1509;51.964;7.628;2022-12-15T14:42:58;0.30;99.90
2999;DHT22;1509;51.964;7.628;2022-12-15T14:45:29;0.30;99.90
2999;DHT22;1509;51.964;7.628;2022-12-15T14:48:01;0.30;99.90
2999;DHT22;1509;51.964;7.628;2022-12-15T14:50:30;0.30;99.90
2999;DHT22;1509;51.964;7.628;2022-12-15T14:53:04;0.20;99.90
2999;DHT22;1509;51.964;7.628;2022-12-15T14:55:35;0.20;99.90
2999;DHT22;1509;51.964;7.628;2022-12-15T14:58:17;0.10;99.90
2999;DHT22;1509;51.964;7.628;2022-12-15T15:00:51;0.20;99.90
2999;DHT22;1509;51.964;7.628;2022-12-15T15:03:19;0.20;99.90
2999;DHT22;1509;51.964;7.628;2022-12-15T15:05:56;0.10;99.90
2999;DHT22;1509;51.964;7.628;2022-12-15T15:08:34;0.10;99.90
2999;DHT22;1509;51.964;7.628;2022-12-15T15:11:16;0.10;99.90
2999;DHT22;1509;51.964;7.628;2022-12-15T15:13:44;0.10;99.90
2999;DHT22;1509;51.964;7.628;2022-12-15T15:16:15;0.00;99.90
2999;DHT22;1509;51.964;7.628;2022-12-15T15:18:52;-0.10;99.90
2999;DHT22;1509;51.964;7.628;2022-12-15T15:21:24;-0.10;99.90
2999;DHT22;1509;51.964;7.628;2022-12-15T15:24:03;-0.10;99.90
2999;DHT22;1509;51.964;7.628;2022-12-15T15:26:29;-0.20;99.90
2999;DHT22;1509;51.964;7.628;2022-12-15T15:28:55;-0.20;99.90
2999;DHT22;1509;51.964;7.628;2022-12-15T15:33:52;-0.30;99.90
2999;DHT22;1509;51.964;7.628;2022-12-15T15:36:19;-0.30;99.90
2999;DHT22;1509;51.964;7.628;2022-12-15T15:38:46;-0.30;99.90
2999;DHT22;1509;51.964;7.628;2022-12-15T15:41:19;-0.30;99.90
2999;DHT22;1509;51.964;7.628;2022-12-15T15:43:45;-0.30;99.90
2999;DHT22;1509;51.964;7.628;2022-12-15T15:46:21;-0.30;99.90
2999;DHT22;1509;51.964;7.628;2022-12-15T15:48:52;-0.40;99.90
2999;DHT22;1509;51.964;7.628;2022-12-15T15:51:19;-0.40;99.90
2999;DHT22;1509;51.964;7.628;2022-12-15T15:53:45;-0.50;99.90
2999;DHT22;1509;51.964;7.628;2022-12-15T15:56:14;-0.50;99.90
2999;DHT22;1509;51.964;7.628;2022-12-15T15:58:41;-0.50;99.90
2999;DHT22;1509;51.964;7.628;2022-12-15T16:01:08;-0.50;99.90
2999;DHT22;1509;51.964;7.628;2022-12-15T16:03:34;-0.50;99.90
2999;DHT22;1509;51.964;7.628;2022-12-15T16:06:01;-0.50;99.90
2999;DHT22;1509;51.964;7.628;2022-12-15T16:08:34;-0.50;99.90
2999;DHT22;1509;51.964;7.628;2022-12-15T16:11:00;-0.40;99.90
2999;DHT22;1509;51.964;7.628;2022-12-15T16:13:26;-0.40;99.90
2999;DHT22;1509;51.964;7.628;2022-12-15T16:15:53;-0.50;99.90
2999;DHT22;1509;51.964;7.628;2022-12-15T16:18:19;-0.50;99.90
2999;DHT22;1509;51.964;7.628;2022-12-15T16:20:46;-0.50;99.90
2999;DHT22;1509;51.964;7.628;2022-12-15T16:23:16;-0.50;99.90
2999;DHT22;1509;51.964;7.628;2022-12-15T16:25:54;-0.50;99.90
2999;DHT22;1509;51.964;7.628;2022-12-15T16:28:25;-0.50;99.90
2999;DHT22;1509;51.964;7.628;2022-12-15T16:30:52;-0.50;99.90
2999;DHT22;1509;51.964;7.628;2022-12-15T16:33:18;-0.60;99.90
2999;DHT22;1509;51.964;7.628;2022-12-15T16:35:45;-0.50;99.90
2999;DHT22;1509;51.964;7.628;2022-12-15T16:38:21;-0.60;99.90
2999;DHT22;1509;51.964;7.628;2022-12-15T16:40:50;-0.60;99.90
2999;DHT22;1509;51.964;7.628;2022-12-15T16:43:18;-0.60;99.90
2999;DHT22;1509;51.964;7.628;2022-12-15T16:45:47;-0.50;99.90
2999;DHT22;1509;51.964;7.628;2022-12-15T16:48:13;-0.60;99.90
2999;DHT22;1509;51.964;7.628;2022-12-15T16:50:42;-0.60;99.90
2999;DHT22;1509;51.964;7.628;2022-12-15T16:53:21;-0.60;99.90
2999;DHT22;1509;51.964;7.628;2022-12-15T16:55:52;-0.60;99.90
2999;DHT22;1509;51.964;7.628;2022-12-15T16:58:19;-0.70;99.90
2999;DHT22;1509;51.964;7.628;2022-12-15T17:00:45;-0.70;99.90
2999;DHT22;1509;51.964;7.628;2022-12-15T17:03:12;-0.70;99.90
2999;DHT22;1509;51.964;7.628;2022-12-15T17:05:39;-0.80;99.90
2999;DHT22;1509;51.964;7.628;2022-12-15T17:08:06;-0.70;99.90
2999;DHT22;1509;51.964;7.628;2022-12-15T17:10:32;-0.70;99.90
2999;DHT22;1509;51.964;7.628;2022-12-15T17:13:09;-0.70;99.90
2999;DHT22;1509;51.964;7.628;2022-12-15T17:15:39;-0.80;99.90
2999;DHT22;1509;51.964;7.628;2022-12-15T17:18:04;-0.80;99.90
2999;DHT22;1509;51.964;7.628;2022-12-15T17:20:31;-0.80;99.90
2999;DHT22;1509;51.964;7.628;2022-12-15T17:23:04;-0.80;99.90
2999;DHT22;1509;51.964;7.628;2022-12-15T17:25:39;-0.90;99.90
2999;DHT22;1509;51.964;7.628;2022-12-15T17:28:17;-1.00;99.90
2999;DHT22;1509;51.964;7.628;2022-12-15T17:30:45;-1.00;99.90
2999;DHT22;1509;51.964;7.628;2022-12-15T17:33:23;-1.00;99.90
2999;DHT22;1509;51.964;7.628;2022-12-15T17:35:59;-1.00;99.90
2999;DHT22;1509;51.964;7.628;2022-12-15T17:38:25;-1.00;99.90
2999;DHT22;1509;51.964;7.628;2022-12-15T17:40:52;-1.00;99.90
2999;DHT22;1509;51.964;7.628;2022-12-15T17:43:20;-1.10;99.90
2999;DHT22;1509;51.964;7.628;2022-12-15T17:45:46;-1.10;99.90
2999;DHT22;1509;51.964;7.628;2022-12-15T17:48:14;-1.10;99.90
2999;DHT22;1509;51.964;7.628;2022-12-15T17:50:39;-1.10;99.90
2999;DHT22;1509;51.964;7.628;2022-12-15T17:53:05;-1.20;99.90
2999;DHT22;1509;51.964;7.628;2022-12-15T17:55:32;-1.20;99.90
2999;DHT22;1509;51.964;7.628;2022-12-15T17:57:58;-1.20;99.90
2999;DHT22;1509;51.964;7.628;2022-12-15T18:00:26;-1.20;99.90
2999;DHT22;1509;51.964;7.628;2022-12-15T18:02:53;-1.30;99.90
2999;DHT22;1509;51.964;7.628;2022-12-15T18:05:20;-1.30;99.90
2999;DHT22;1509;51.964;7.628;2022-12-15T18:07:55;-1.30;99.90
2999;DHT22;1509;51.964;7.628;2022-12-15T18:10:30;-1.30;99.90
2999;DHT22;1509;51.964;7.628;2022-12-15T18:12:57;-1.30;99.90